createdAt,value
2022-10-23T00:02:20.373Z,30.73
2022-10-23T00:05:23.361Z,34.70
2022-10-23T00:08:25.804Z,42.58
2022-10-23T00:11:34.206Z,54.28
2022-10-23T00:14:36.724Z,33.15
2022-10-23T00:17:39.339Z,28.77
2022-10-23T00:20:41.836Z,28.27
2022-10-23T00:23:44.763Z,27.42
2022-10-23T00:26:50.457Z,32.70
2022-10-23T00:29:52.994Z,31.63
2022-10-23T00:32:55.331Z,27.00
2022-10-23T00:35:57.720Z,33.67
2022-10-23T00:39:00.206Z,38.75
2022-10-23T00:42:02.554Z,34.05
2022-10-23T00:45:09.984Z,37.83
2022-10-23T00:48:12.944Z,38.30
2022-10-23T00:51:15.668Z,39.13
2022-10-23T00:54:24.336Z,39.35
2022-10-23T01:00:47.112Z,34.40
2022-10-23T01:03:50.043Z,32.47
2022-10-23T01:06:55.483Z,35.67
2022-10-23T01:09:57.839Z,32.78
2022-10-23T01:13:12.878Z,36.15
2022-10-23T01:16:28.876Z,40.47
2022-10-23T01:19:47.878Z,35.20
2022-10-23T01:23:12.151Z,35.30
2022-10-23T01:26:46.487Z,40.25
2022-10-23T01:30:12.244Z,29.90
2022-10-23T01:33:25.290Z,34.72
2022-10-23T01:36:29.443Z,32.72
2022-10-23T01:39:40.248Z,39.07
2022-10-23T01:42:47.590Z,33.33
2022-10-23T01:45:53.344Z,32.67
2022-10-23T01:48:59.042Z,36.03
2022-10-23T01:52:06.627Z,38.53
2022-10-23T01:55:11.189Z,37.13
2022-10-23T01:58:15.586Z,36.45
2022-10-23T02:01:20.401Z,43.17
2022-10-23T02:04:51.073Z,40.33
2022-10-23T02:07:54.985Z,44.88
2022-10-23T02:11:05.716Z,38.00
2022-10-23T02:14:25.408Z,37.35
2022-10-23T02:17:57.528Z,34.65
2022-10-23T02:21:17.724Z,34.33
2022-10-23T02:24:32.063Z,35.95
2022-10-23T02:27:44.269Z,40.70
2022-10-23T02:30:49.251Z,43.33
2022-10-23T02:33:51.739Z,41.55
2022-10-23T02:36:54.458Z,36.65
2022-10-23T02:39:57.914Z,37.50
2022-10-23T02:43:14.481Z,40.57
2022-10-23T02:46:30.201Z,44.13
2022-10-23T02:49:54.114Z,41.13
2022-10-23T02:53:12.322Z,37.63
2022-10-23T02:56:37.965Z,42.72
2022-10-23T02:59:47.569Z,44.67
2022-10-23T03:02:57.764Z,48.53
2022-10-23T03:06:02.954Z,52.00
2022-10-23T03:09:08.574Z,51.03
2022-10-23T03:12:10.982Z,49.40
2022-10-23T03:15:13.386Z,43.50
2022-10-23T03:18:16.253Z,43.47
2022-10-23T03:21:26.642Z,46.28
2022-10-23T03:24:29.792Z,47.65
2022-10-23T03:27:32.794Z,45.08
2022-10-23T03:30:40.020Z,48.17
2022-10-23T03:33:42.442Z,50.85
2022-10-23T03:36:47.188Z,49.33
2022-10-23T03:39:50.331Z,53.72
2022-10-23T03:42:52.813Z,50.47
2022-10-23T03:45:58.757Z,57.10
2022-10-23T03:49:01.858Z,57.08
2022-10-23T03:52:04.812Z,49.63
2022-10-23T03:55:07.885Z,55.35
2022-10-23T03:58:12.254Z,54.83
2022-10-23T04:01:15.235Z,56.70
2022-10-23T04:04:17.683Z,52.70
2022-10-23T04:07:20.068Z,49.67
2022-10-23T04:10:25.238Z,52.33
2022-10-23T04:13:27.653Z,51.38
2022-10-23T04:16:30.093Z,49.23
2022-10-23T04:19:32.476Z,52.58
2022-10-23T04:22:34.888Z,65.68
2022-10-23T04:25:37.268Z,55.80
2022-10-23T04:28:40.616Z,49.67
2022-10-23T04:31:43.236Z,47.23
2022-10-23T04:34:45.562Z,51.30
2022-10-23T04:37:48.452Z,48.78
2022-10-23T04:40:50.821Z,52.00
2022-10-23T04:43:56.877Z,46.47
2022-10-23T04:46:59.226Z,79.57
2022-10-23T04:50:01.778Z,106.20
2022-10-23T04:53:23.830Z,73.50
2022-10-23T04:56:44.698Z,83.15
2022-10-23T04:59:53.317Z,71.28
2022-10-23T05:02:55.713Z,70.77
2022-10-23T05:05:58.700Z,64.72
2022-10-23T05:09:19.673Z,62.75
2022-10-23T05:12:39.268Z,62.92
2022-10-23T05:18:48.999Z,54.67
2022-10-23T05:21:55.818Z,67.55
2022-10-23T05:25:03.219Z,66.40
2022-10-23T05:28:07.938Z,71.45
2022-10-23T05:31:10.860Z,89.63
2022-10-23T05:34:17.233Z,114.97
2022-10-23T05:37:20.352Z,114.60
2022-10-23T05:40:23.927Z,180.48
2022-10-23T05:43:31.679Z,208.35
2022-10-23T05:46:58.214Z,241.02
2022-10-23T05:50:31.476Z,199.90
2022-10-23T05:53:56.011Z,241.52
2022-10-23T05:57:33.366Z,196.57
2022-10-23T06:00:39.894Z,178.45
2022-10-23T06:04:02.961Z,171.00
2022-10-23T06:07:31.277Z,132.23
2022-10-23T06:10:38.853Z,226.38
2022-10-23T06:13:44.184Z,84.55
2022-10-23T06:16:46.827Z,139.85
2022-10-23T06:19:50.704Z,96.93
2022-10-23T06:22:54.135Z,141.93
2022-10-23T06:26:18.219Z,69.25
2022-10-23T06:29:34.489Z,110.50
2022-10-23T06:32:38.214Z,86.28
2022-10-23T06:35:47.864Z,70.07
2022-10-23T06:38:51.898Z,82.50
2022-10-23T06:41:55.848Z,79.10
2022-10-23T06:45:17.104Z,73.32
2022-10-23T06:48:38.041Z,76.95
2022-10-23T06:51:46.740Z,62.60
2022-10-23T06:54:50.712Z,57.53
2022-10-23T06:57:56.843Z,47.47
2022-10-23T07:01:05.093Z,41.25
2022-10-23T07:04:07.569Z,43.88
2022-10-23T07:07:09.949Z,41.67
2022-10-23T07:10:20.160Z,43.47
2022-10-23T07:13:28.220Z,47.22
2022-10-23T07:16:40.098Z,45.38
2022-10-23T07:19:48.416Z,44.30
2022-10-23T07:22:56.044Z,50.17
2022-10-23T07:26:15.459Z,60.03
2022-10-23T07:29:18.087Z,48.80
2022-10-23T07:32:20.466Z,48.97
2022-10-23T07:35:43.192Z,57.53
2022-10-23T07:38:50.785Z,47.50
2022-10-23T07:41:53.200Z,58.27
2022-10-23T07:44:55.548Z,50.28
2022-10-23T07:47:59.158Z,43.25
2022-10-23T07:51:13.140Z,57.42
2022-10-23T07:54:21.341Z,47.38
2022-10-23T07:57:32.816Z,46.30
2022-10-23T08:00:52.056Z,34.65
2022-10-23T08:04:02.029Z,33.00
2022-10-23T08:07:05.870Z,31.88
2022-10-23T08:10:14.052Z,36.63
2022-10-23T08:13:20.419Z,29.50
2022-10-23T08:16:32.933Z,32.67
2022-10-23T08:20:10.553Z,38.70
2022-10-23T08:23:18.819Z,30.98
2022-10-23T08:26:21.427Z,29.48
2022-10-23T08:29:23.789Z,30.17
2022-10-23T08:32:30.894Z,28.40
2022-10-23T08:35:37.507Z,30.17
2022-10-23T08:38:42.196Z,27.17
2022-10-23T08:41:50.710Z,31.08
2022-10-23T08:45:27.085Z,29.63
2022-10-23T08:48:45.367Z,28.27
2022-10-23T08:52:22.285Z,31.40
2022-10-23T08:55:30.247Z,31.95
2022-10-23T08:58:47.087Z,29.00
2022-10-23T09:01:52.850Z,31.10
2022-10-23T09:04:57.544Z,31.17
2022-10-23T09:08:37.991Z,34.42
2022-10-23T09:11:59.771Z,36.33
2022-10-23T09:15:25.128Z,30.45
2022-10-23T09:18:27.516Z,25.80
2022-10-23T09:21:31.163Z,28.48
2022-10-23T09:24:34.175Z,24.55
2022-10-23T09:27:37.708Z,23.20
2022-10-23T09:30:42.609Z,26.70
2022-10-23T09:34:02.992Z,25.17
2022-10-23T09:37:27.453Z,26.45
2022-10-23T09:40:42.856Z,25.75
2022-10-23T09:43:46.042Z,24.48
2022-10-23T09:49:57.299Z,27.93
2022-10-23T09:53:01.155Z,32.00
2022-10-23T09:56:07.861Z,32.33
2022-10-23T09:59:13.283Z,29.05
2022-10-23T10:02:32.354Z,30.83
2022-10-23T10:05:57.234Z,26.90
2022-10-23T10:09:28.445Z,32.72
2022-10-23T10:12:40.042Z,31.70
2022-10-23T10:15:49.066Z,31.77
2022-10-23T10:19:07.409Z,32.63
2022-10-23T10:22:33.961Z,33.70
2022-10-23T10:26:01.653Z,30.65
2022-10-23T10:29:15.935Z,35.50
2022-10-23T10:33:12.544Z,27.42
2022-10-23T10:36:29.854Z,26.05
2022-10-23T10:39:40.552Z,33.47
2022-10-23T10:42:55.569Z,30.10
2022-10-23T10:46:34.452Z,34.47
2022-10-23T10:49:59.360Z,39.55
2022-10-23T10:53:48.893Z,43.25
2022-10-23T10:56:51.373Z,51.10
2022-10-23T10:59:56.069Z,54.78
2022-10-23T11:03:09.864Z,53.53
2022-10-23T11:06:24.799Z,56.80
2022-10-23T11:09:28.971Z,44.05
2022-10-23T11:12:34.417Z,46.23
2022-10-23T11:15:43.121Z,36.75
2022-10-23T11:18:53.428Z,39.70
2022-10-23T11:21:59.865Z,37.03
2022-10-23T11:25:36.762Z,37.28
2022-10-23T11:29:05.604Z,29.97
2022-10-23T11:32:23.592Z,25.25
2022-10-23T11:35:43.632Z,26.50
2022-10-23T11:38:48.200Z,26.42
2022-10-23T11:41:59.533Z,25.17
2022-10-23T11:45:01.934Z,24.23
2022-10-23T11:48:14.432Z,25.40
2022-10-23T11:51:28.077Z,23.60
2022-10-23T11:54:30.931Z,25.02
2022-10-23T11:57:33.496Z,24.45
2022-10-23T12:00:40.196Z,21.23
2022-10-23T12:03:55.134Z,20.70
2022-10-23T12:07:00.508Z,23.00
2022-10-23T12:10:17.186Z,23.42
2022-10-23T12:13:51.041Z,22.60
2022-10-23T12:16:53.522Z,27.53
2022-10-23T12:20:11.119Z,23.95
2022-10-23T12:23:47.378Z,26.45
2022-10-23T12:26:56.592Z,21.40
2022-10-23T12:30:17.494Z,25.67
2022-10-23T12:33:30.714Z,23.90
2022-10-23T12:36:51.861Z,24.38
2022-10-23T12:39:59.052Z,22.13
2022-10-23T12:43:01.798Z,23.13
2022-10-23T12:46:27.510Z,24.85
2022-10-23T12:49:33.530Z,25.10
2022-10-23T12:52:39.585Z,24.02
2022-10-23T12:55:48.994Z,22.48
2022-10-23T12:58:54.100Z,22.77
2022-10-23T13:01:56.687Z,24.98
2022-10-23T13:05:01.509Z,25.67
2022-10-23T13:08:04.518Z,24.23
2022-10-23T13:11:20.914Z,23.05
2022-10-23T13:14:38.261Z,22.75
2022-10-23T13:17:59.364Z,21.48
2022-10-23T13:24:19.930Z,22.73
2022-10-23T13:27:33.776Z,25.80
2022-10-23T13:30:39.008Z,23.02
2022-10-23T13:33:46.022Z,25.27
2022-10-23T13:36:53.931Z,24.47
2022-10-23T13:40:10.770Z,25.63
2022-10-23T13:43:16.068Z,24.73
2022-10-23T13:46:22.111Z,28.63
2022-10-23T13:49:25.401Z,27.40
2022-10-23T13:52:28.066Z,30.47
2022-10-23T13:55:31.678Z,30.08
2022-10-23T13:58:34.043Z,30.20
2022-10-23T14:01:36.738Z,27.20
2022-10-23T14:04:39.352Z,32.22
2022-10-23T14:07:41.997Z,25.17
2022-10-23T14:10:45.093Z,29.50
2022-10-23T14:13:48.166Z,24.75
2022-10-23T14:16:52.706Z,25.92
2022-10-23T14:19:55.487Z,22.55
2022-10-23T14:22:57.859Z,26.80
2022-10-23T14:26:04.531Z,26.00
2022-10-23T14:29:09.863Z,27.45
2022-10-23T14:32:16.434Z,25.98
2022-10-23T14:35:18.811Z,29.20
2022-10-23T14:38:21.381Z,26.13
2022-10-23T14:41:25.902Z,27.90
2022-10-23T14:44:29.139Z,29.42
2022-10-23T14:47:31.844Z,28.33
2022-10-23T14:50:36.394Z,25.60
2022-10-23T14:53:38.831Z,26.00
2022-10-23T14:56:41.296Z,27.73
2022-10-23T14:59:44.000Z,28.38
2022-10-23T15:02:46.638Z,26.88
2022-10-23T15:05:50.478Z,27.40
2022-10-23T15:08:55.435Z,28.10
2022-10-23T15:11:58.117Z,29.20
2022-10-23T15:15:01.172Z,32.90
2022-10-23T15:18:04.009Z,28.70
2022-10-23T15:21:07.526Z,31.83
2022-10-23T15:24:09.860Z,33.97
2022-10-23T15:27:13.501Z,35.88
2022-10-23T15:30:17.435Z,30.55
2022-10-23T15:33:20.969Z,33.17
2022-10-23T15:36:24.608Z,34.00
2022-10-23T15:39:33.786Z,31.37
2022-10-23T15:42:36.646Z,29.20
2022-10-23T15:45:41.091Z,27.83
2022-10-23T15:48:44.006Z,29.05
2022-10-23T15:51:46.635Z,33.08
2022-10-23T15:54:49.792Z,33.27
2022-10-23T15:57:52.662Z,31.77
2022-10-23T16:00:56.150Z,32.95
2022-10-23T16:03:59.040Z,33.58
2022-10-23T16:07:01.636Z,33.80
2022-10-23T16:10:04.323Z,38.73
2022-10-23T16:13:08.025Z,38.85
2022-10-23T16:16:12.020Z,39.53
2022-10-23T16:19:14.716Z,37.38
2022-10-23T16:22:17.503Z,40.55
2022-10-23T16:25:21.551Z,38.20
2022-10-23T16:28:24.849Z,33.92
2022-10-23T16:31:27.653Z,33.50
2022-10-23T16:34:30.054Z,38.38
2022-10-23T16:37:33.305Z,35.38
2022-10-23T16:40:41.597Z,35.73
2022-10-23T16:44:02.610Z,35.65
2022-10-23T16:47:31.086Z,31.63
2022-10-23T16:50:33.583Z,38.28
2022-10-23T16:53:36.817Z,34.90
2022-10-23T16:56:39.677Z,38.10
2022-10-23T16:59:42.364Z,36.80
2022-10-23T17:02:47.550Z,35.13
2022-10-23T17:05:51.969Z,37.78
2022-10-23T17:08:55.460Z,37.97
2022-10-23T17:11:59.239Z,40.63
2022-10-23T17:15:01.676Z,40.08
2022-10-23T17:18:06.390Z,38.70
2022-10-23T17:21:10.321Z,38.97
2022-10-23T17:24:13.354Z,38.22
2022-10-23T17:27:16.000Z,35.10
2022-10-23T17:30:18.698Z,39.33
2022-10-23T17:33:21.349Z,37.88
2022-10-23T17:36:26.318Z,36.05
2022-10-23T17:39:29.610Z,36.53
2022-10-23T17:42:32.239Z,41.83
2022-10-23T17:45:36.993Z,36.95
2022-10-23T17:48:43.881Z,39.55
2022-10-23T17:51:46.562Z,38.60
2022-10-23T17:54:52.144Z,40.10
2022-10-23T17:57:54.793Z,40.47
2022-10-23T18:00:57.762Z,42.35
2022-10-23T18:04:02.468Z,50.08
2022-10-23T18:07:05.130Z,41.63
2022-10-23T18:10:08.137Z,44.83
2022-10-23T18:13:10.834Z,51.57
2022-10-23T18:16:14.234Z,45.28
2022-10-23T18:19:18.346Z,39.38
2022-10-23T18:22:21.324Z,41.03
2022-10-23T18:25:23.806Z,40.30
2022-10-23T18:28:27.773Z,41.70
2022-10-23T18:31:31.878Z,46.58
2022-10-23T18:34:35.157Z,37.65
2022-10-23T18:37:41.209Z,36.58
2022-10-23T18:40:44.361Z,33.28
2022-10-23T18:43:48.375Z,33.47
2022-10-23T18:46:51.918Z,39.55
2022-10-23T18:49:55.082Z,36.50
2022-10-23T18:52:58.194Z,37.42
2022-10-23T18:56:00.930Z,36.45
2022-10-23T18:59:05.233Z,37.07
2022-10-23T19:02:09.628Z,40.78
2022-10-23T19:05:12.445Z,40.53
2022-10-23T19:08:15.005Z,40.20
2022-10-23T19:11:19.335Z,40.05
2022-10-23T19:14:22.029Z,42.43
2022-10-23T19:17:32.028Z,38.00
2022-10-23T19:20:34.855Z,41.97
2022-10-23T19:23:38.397Z,40.25
2022-10-23T19:26:42.182Z,40.60
2022-10-23T19:29:47.192Z,41.97
2022-10-23T19:32:50.295Z,41.38
2022-10-23T19:35:52.920Z,37.33
2022-10-23T19:38:55.663Z,42.08
2022-10-23T19:41:58.789Z,41.20
2022-10-23T19:45:01.460Z,41.20
2022-10-23T19:48:04.500Z,46.55
2022-10-23T19:51:07.795Z,45.47
2022-10-23T19:54:10.686Z,44.58
2022-10-23T19:57:15.529Z,43.33
2022-10-23T20:00:19.884Z,44.03
2022-10-23T20:03:22.571Z,41.00
2022-10-23T20:06:28.245Z,41.28
2022-10-23T20:09:31.019Z,39.40
2022-10-23T20:12:35.455Z,43.00
2022-10-23T20:15:38.957Z,36.07
2022-10-23T20:18:41.578Z,35.28
2022-10-23T20:21:47.987Z,39.45
2022-10-23T20:24:51.916Z,38.10
2022-10-23T20:27:54.920Z,35.17
2022-10-23T20:30:57.291Z,35.13
2022-10-23T20:33:59.998Z,35.20
2022-10-23T20:37:02.679Z,35.83
2022-10-23T20:40:05.620Z,33.10
2022-10-23T20:43:08.096Z,36.30
2022-10-23T20:46:11.107Z,37.70
2022-10-23T20:49:14.593Z,35.30
2022-10-23T20:52:16.968Z,34.47
2022-10-23T20:55:20.991Z,39.78
2022-10-23T20:58:23.750Z,41.78
2022-10-23T21:01:26.834Z,38.60
2022-10-23T21:04:30.225Z,35.53
2022-10-23T21:07:32.639Z,38.72
2022-10-23T21:10:35.118Z,38.60
2022-10-23T21:13:37.521Z,40.10
2022-10-23T21:16:41.358Z,40.63
2022-10-23T21:19:43.756Z,37.10
2022-10-23T21:22:46.275Z,37.67
2022-10-23T21:25:49.022Z,40.85
2022-10-23T21:28:56.147Z,37.47
2022-10-23T21:32:09.135Z,42.87
2022-10-23T21:35:11.476Z,38.75
2022-10-23T21:38:13.838Z,41.33
2022-10-23T21:41:21.873Z,41.75
2022-10-23T21:44:24.271Z,41.53
2022-10-23T21:47:26.657Z,44.60
2022-10-23T21:50:29.986Z,42.20
2022-10-23T21:53:33.078Z,44.25
2022-10-23T21:56:42.928Z,43.50
2022-10-23T21:59:46.523Z,41.72
2022-10-23T22:02:49.131Z,45.87
2022-10-23T22:05:51.903Z,43.05
2022-10-23T22:08:56.501Z,46.60
2022-10-23T22:12:00.042Z,46.40
2022-10-23T22:15:02.381Z,41.38
2022-10-23T22:18:05.623Z,42.53
2022-10-23T22:21:11.268Z,39.83
2022-10-23T22:24:13.964Z,40.85
2022-10-23T22:27:17.673Z,42.75
2022-10-23T22:30:20.975Z,40.63
2022-10-23T22:33:23.321Z,40.87
2022-10-23T22:36:26.278Z,40.45
2022-10-23T22:39:28.625Z,44.85
2022-10-23T22:42:31.014Z,42.97
2022-10-23T22:45:33.365Z,41.33
2022-10-23T22:48:36.206Z,40.40
2022-10-23T22:51:39.686Z,40.42
2022-10-23T22:54:42.111Z,36.85
2022-10-23T22:57:44.679Z,37.97
2022-10-23T23:00:48.140Z,38.28
2022-10-23T23:03:51.184Z,37.40
2022-10-23T23:06:53.553Z,36.83
2022-10-23T23:09:55.928Z,40.58
2022-10-23T23:12:58.397Z,37.97
2022-10-23T23:16:02.276Z,37.70
2022-10-23T23:19:05.548Z,37.87
2022-10-23T23:22:08.164Z,41.25
2022-10-23T23:25:10.623Z,36.42
2022-10-23T23:28:14.241Z,34.95
2022-10-23T23:31:22.139Z,39.72
2022-10-23T23:34:24.552Z,33.97
2022-10-23T23:37:26.911Z,35.85
2022-10-23T23:40:29.356Z,34.25
2022-10-23T23:43:32.036Z,32.85
2022-10-23T23:46:34.464Z,34.08
2022-10-23T23:49:36.809Z,30.63
2022-10-23T23:52:39.292Z,30.88
2022-10-23T23:58:44.652Z,32.47
